»·PEaware :: SWA2456 KABQ-KPHX

SWA2456 :: KABQ-KPHX

FLIGHT INFORMATION

Flight Status: Arrived
Operator:
Southwest Airlines
More flights by this operator :: More flights under this callsign
Pilot: Anonymous 32031 (32031)
Aircraft: BOEING 737-800
(B738)
More flights by this aircraft type
Origin: KABQ Albuquerque Intl Sunport
United States
Destination: KPHX Phoenix Sky Harbor Intl
United States
More flights between these airports :: More routes between these airports
Route: +RDRNR3 ZUN EAGUL6
File this flight plan on PilotEdge
Remarks:
Altitude:
(Current/Filed)
36,000ft
Speed:
(Current/Filed)
460kts
Departed: 21-Oct-20 05:27 PM
Arrived: 21-Oct-20 06:31 PM
Distance/Time
Traveled:
284nm/1:04
Distance/Time
To Go:
Arrived

Flight Plot

Page will automatically refresh every two minutes.

Flight plan parsing failed; only flown route is shown


Map Options




Map Legend


Flown Route
Filed Route
Departure Airport
Arrival Airport
Navaid (VOR, NDB)
Fix

Horizontal Profiles

Position Reports

Time Latitude Longitude Heading Altitude Ground
Speed
21-Oct-20 16:47 35.046932 -106.614473 339 5320ft 0kts
21-Oct-20 16:48 35.046932 -106.614473 339 5320ft 0kts
21-Oct-20 16:49 35.046932 -106.614473 339 5320ft 0kts
21-Oct-20 16:50 35.046932 -106.614473 339 5319ft 0kts
21-Oct-20 16:51 35.046932 -106.614473 339 5319ft 0kts
21-Oct-20 16:52 35.046932 -106.614473 339 5319ft 0kts
21-Oct-20 16:53 35.046932 -106.614473 339 5319ft 0kts
21-Oct-20 16:54 35.046932 -106.614473 339 5319ft 0kts
21-Oct-20 16:55 35.046932 -106.614473 339 5319ft 0kts
21-Oct-20 16:56 35.046932 -106.614473 339 5319ft 0kts
21-Oct-20 16:57 35.046932 -106.614473 339 5319ft 0kts
21-Oct-20 16:58 35.046932 -106.614473 339 5319ft 0kts
21-Oct-20 16:59 35.046932 -106.614473 339 5319ft 0kts
21-Oct-20 17:00 35.046932 -106.614473 339 5319ft 0kts
21-Oct-20 17:01 35.046932 -106.614473 339 5319ft 0kts
21-Oct-20 17:02 35.046932 -106.614473 339 5319ft 0kts
21-Oct-20 17:03 35.046932 -106.614473 339 5319ft 0kts
21-Oct-20 17:04 35.046932 -106.614473 339 5319ft 0kts
21-Oct-20 17:05 35.046932 -106.614473 339 5319ft 0kts
21-Oct-20 17:06 35.046932 -106.614473 339 5319ft 0kts
21-Oct-20 17:07 35.046932 -106.614473 339 5319ft 0kts
21-Oct-20 17:08 35.046932 -106.614473 339 5319ft 0kts
21-Oct-20 17:09 35.046932 -106.614473 339 5319ft 0kts
21-Oct-20 17:10 35.046932 -106.614473 339 5319ft 0kts
21-Oct-20 17:11 35.046932 -106.614473 339 5319ft 0kts
21-Oct-20 17:12 35.046932 -106.614473 339 5319ft 0kts
21-Oct-20 17:13 35.046932 -106.614473 339 5319ft 0kts
21-Oct-20 17:14 35.046764 -106.614398 339 5320ft 0kts
21-Oct-20 17:15 35.046467 -106.613890 269 5321ft 0kts
21-Oct-20 17:16 35.046467 -106.613891 269 5321ft 0kts
21-Oct-20 17:17 35.046467 -106.613891 269 5321ft 0kts
21-Oct-20 17:18 35.046467 -106.613891 269 5321ft 0kts
21-Oct-20 17:19 35.046467 -106.613891 269 5321ft 0kts
21-Oct-20 17:20 35.046467 -106.613891 269 5321ft 0kts
21-Oct-20 17:21 35.045575 -106.617144 269 5318ft 20kts
21-Oct-20 17:22 35.045340 -106.621318 204 5305ft 0kts
21-Oct-20 17:23 35.045340 -106.621318 204 5305ft 0kts
21-Oct-20 17:24 35.045340 -106.621318 204 5305ft 0kts
21-Oct-20 17:25 35.045070 -106.621392 186 5304ft 9kts
21-Oct-20 17:26 35.044306 -106.611237 90 5322ft 127kts
21-Oct-20 17:27 35.044892 -106.550361 97 7283ft 205kts
21-Oct-20 17:28 35.087113 -106.498040 345 9015ft 293kts
21-Oct-20 17:29 35.117105 -106.581734 260 11124ft 337kts
21-Oct-20 17:30 35.101202 -106.702303 260 13365ft 370kts
21-Oct-20 17:31 35.103948 -106.829588 278 16026ft 383kts
21-Oct-20 17:32 35.099239 -106.960053 256 18530ft 390kts
21-Oct-20 17:33 35.073517 -107.089912 255 20756ft 400kts
21-Oct-20 17:34 35.047626 -107.223627 259 22723ft 411kts
21-Oct-20 17:35 35.036406 -107.363867 265 24511ft 422kts
21-Oct-20 17:36 35.030565 -107.508721 266 26220ft 431kts
21-Oct-20 17:37 35.025555 -107.656321 266 27684ft 441kts
21-Oct-20 17:38 35.020538 -107.805665 265 29391ft 441kts
21-Oct-20 17:39 35.015449 -107.954167 265 31253ft 436kts
21-Oct-20 17:40 35.010295 -108.100775 265 32968ft 430kts
21-Oct-20 17:41 35.004999 -108.245666 265 34576ft 425kts
21-Oct-20 17:42 34.999569 -108.389217 265 36010ft 422kts
21-Oct-20 17:43 34.993898 -108.535616 265 36124ft 439kts
21-Oct-20 17:44 34.987956 -108.685982 265 36125ft 438kts
21-Oct-20 17:45 34.981794 -108.835832 265 36116ft 439kts
21-Oct-20 17:46 34.975518 -108.984274 265 36099ft 438kts
21-Oct-20 17:48 34.965369 -109.133013 253 36087ft 442kts
21-Oct-20 17:49 34.922684 -109.272620 244 36056ft 438kts
21-Oct-20 17:50 34.873763 -109.407239 244 36064ft 434kts
21-Oct-20 17:51 34.824637 -109.541705 244 36063ft 434kts
21-Oct-20 17:52 34.775588 -109.675017 243 36067ft 434kts
21-Oct-20 17:53 34.725993 -109.808379 243 36088ft 433kts
21-Oct-20 17:54 34.676239 -109.942079 243 36111ft 435kts
21-Oct-20 17:55 34.626492 -110.075654 243 36106ft 432kts
21-Oct-20 17:56 34.577647 -110.206469 243 36109ft 426kts
21-Oct-20 17:57 34.528626 -110.337248 243 35726ft 426kts
21-Oct-20 17:58 34.479715 -110.467004 243 33150ft 418kts
21-Oct-20 17:59 34.429740 -110.598101 243 33022ft 431kts
21-Oct-20 18:00 34.381803 -110.723841 241 30998ft 404kts
21-Oct-20 18:01 34.320188 -110.837157 229 28566ft 391kts
21-Oct-20 18:02 34.243582 -110.938495 227 24473ft 404kts
21-Oct-20 18:03 34.169165 -111.034737 227 22142ft 380kts
21-Oct-20 18:03 34.110557 -111.110183 227 20499ft 362kts
21-Oct-20 18:05 34.032137 -111.210706 227 18284ft 345kts
21-Oct-20 18:05 33.977858 -111.280231 227 17193ft 322kts
21-Oct-20 18:07 33.904258 -111.374327 227 17259ft 329kts
21-Oct-20 18:07 33.846500 -111.425922 182 17207ft 320kts
21-Oct-20 18:08 33.800375 -111.348477 70 17113ft 341kts
21-Oct-20 18:09 33.877176 -111.297317 344 17227ft 333kts
21-Oct-20 18:10 33.920881 -111.379123 257 17296ft 317kts
21-Oct-20 18:11 33.892865 -111.479851 250 17237ft 317kts
21-Oct-20 18:12 33.863455 -111.579699 250 17189ft 317kts
21-Oct-20 18:13 33.833921 -111.680107 249 17115ft 318kts
21-Oct-20 18:14 33.800558 -111.779874 228 17070ft 317kts
21-Oct-20 18:15 33.725436 -111.836654 209 16852ft 318kts
21-Oct-20 18:16 33.648352 -111.888240 210 16551ft 316kts
21-Oct-20 18:17 33.584967 -111.962696 236 13343ft 331kts
21-Oct-20 18:18 33.536739 -112.056477 247 9957ft 326kts
21-Oct-20 18:19 33.525185 -112.151253 267 10002ft 249kts
21-Oct-20 18:20 33.523034 -112.233284 267 9066ft 243kts
21-Oct-20 18:21 33.520915 -112.312794 268 8196ft 238kts
21-Oct-20 18:22 33.518747 -112.395156 268 7245ft 235kts
21-Oct-20 18:23 33.480219 -112.443272 157 6202ft 239kts
21-Oct-20 18:24 33.442226 -112.377522 99 5228ft 241kts
21-Oct-20 18:25 33.440452 -112.297962 90 4363ft 238kts
21-Oct-20 18:26 33.440611 -112.219219 89 4015ft 235kts
21-Oct-20 18:27 33.440682 -112.153449 89 3108ft 164kts
21-Oct-20 18:28 33.440769 -112.098738 88 2245ft 164kts
21-Oct-20 18:29 33.440874 -112.044997 88 1415ft 157kts
21-Oct-20 18:30 33.440862 -112.008764 89 1132ft 13kts
21-Oct-20 18:31 33.440073 -112.007367 175 1133ft 0kts
21-Oct-20 18:32 33.439090 -112.007080 121 1133ft 9kts
21-Oct-20 18:33 33.437684 -112.004676 179 1132ft 13kts
21-Oct-20 18:34 33.433270 -112.004672 173 1129ft 9kts
21-Oct-20 18:35 33.433007 -112.000439 54 1128ft 11kts
21-Oct-20 18:36 33.433580 -111.999792 35 1127ft 0kts

Navigation Log

Ident Type
Flight plan parsing failed, navigation log unavailable